Blue Ridge Observed Data For Previous 48 Hours

Caption
Day and Hour Reservoir Elevation (behind dam)* Tailwater Elevation (below dam)* Average Hourly Discharge*
6/18/2019 2 AM EDT 1,686.59 1,540.98 150
6/18/2019 3 AM EDT 1,686.58 1,540.98 150
6/18/2019 4 AM EDT 1,686.61 1,540.98 150
6/18/2019 5 AM EDT 1,686.59 1,540.98 150
6/18/2019 6 AM EDT 1,686.59 1,540.98 150
6/18/2019 7 AM EDT 1,686.63 1,540.98 150
6/18/2019 8 AM EDT 1,686.64 1,540.98 150
6/18/2019 9 AM EDT 1,686.65 1,540.98 150
6/18/2019 10 AM EDT 1,686.62 1,543.75 1,716
6/18/2019 11 AM EDT 1,686.57 1,543.83 1,746
6/18/2019 12 PM EDT 1,686.53 1,543.82 1,739
6/18/2019 1 PM EDT 1,686.53 1,541.11 216
6/18/2019 2 PM EDT 1,686.63 1,541.03 150
6/18/2019 3 PM EDT 1,686.61 1,541.00 150
6/18/2019 4 PM EDT 1,686.57 1,540.96 170
6/18/2019 5 PM EDT 1,686.58 1,543.73 1,728
6/18/2019 6 PM EDT 1,686.56 1,543.81 1,716
6/18/2019 7 PM EDT 1,686.53 1,543.78 1,714
6/18/2019 8 PM EDT 1,686.51 1,543.77 1,710
6/18/2019 9 PM EDT 1,686.50 1,543.77 1,712
6/18/2019 10 PM EDT 1,686.51 1,541.09 209
6/18/2019 11 PM EDT 1,686.52 1,540.98 150
6/19/2019 12 AM EDT 1,686.55 1,540.98 150
6/19/2019 1 AM EDT 1,686.56 1,540.97 150
6/19/2019 2 AM EDT 1,686.56 1,540.98 150
6/19/2019 3 AM EDT 1,686.60 1,540.99 150
6/19/2019 4 AM EDT 1,686.63 1,540.98 150
6/19/2019 5 AM EDT 1,686.58 1,540.98 150
6/19/2019 6 AM EDT 1,686.61 1,540.98 150
6/19/2019 7 AM EDT 1,686.63 1,540.98 150
6/19/2019 8 AM EDT 1,686.65 1,540.99 150
6/19/2019 9 AM EDT 1,686.64 1,540.97 160
6/19/2019 10 AM EDT 1,686.61 1,543.69 1,707
6/19/2019 11 AM EDT 1,686.56 1,543.78 1,713
6/19/2019 12 PM EDT 1,686.57 1,543.77 1,710
6/19/2019 1 PM EDT 1,686.54 1,541.09 211
6/19/2019 2 PM EDT 1,686.56 1,541.04 226
6/19/2019 3 PM EDT 1,686.54 1,540.94 155
6/19/2019 4 PM EDT 1,686.58 1,540.76 156
6/19/2019 5 PM EDT 1,686.57 1,543.61 1,733
6/19/2019 6 PM EDT 1,686.54 1,543.69 1,722
6/19/2019 7 PM EDT 1,686.49 1,543.68 1,720
6/19/2019 8 PM EDT 1,686.50 1,540.93 212
6/19/2019 9 PM EDT 1,686.57 1,540.79 155
6/19/2019 10 PM EDT 1,686.59 1,540.79 155
6/19/2019 11 PM EDT 1,686.56 1,540.79 155
6/20/2019 12 AM EDT 1,686.61 1,540.79 155
6/20/2019 1 AM EDT 1,686.63 1,540.79 155
6/20/2019 2 AM EDT 1,686.63 1,540.79 155
6/20/2019 3 AM EDT 1,686.61 1,540.79 155
6/20/2019 4 AM EDT 1,686.62 1,540.79 155
6/20/2019 5 AM EDT 1,686.64 1,540.80 155
6/20/2019 6 AM EDT 1,686.61 1,540.80 155
6/20/2019 7 AM EDT 1,686.64 1,540.80 155
6/20/2019 8 AM EDT 1,686.70 1,540.80 155
6/20/2019 9 AM EDT 1,686.69 1,540.80 155
6/20/2019 10 AM EDT 1,686.67 1,540.77 167
6/20/2019 11 AM EDT 1,686.62 1,543.66 1,759
6/20/2019 12 PM EDT 1,686.64 1,543.75 1,755
6/20/2019 1 PM EDT 1,686.66 1,540.94 217
6/20/2019 2 PM EDT 1,686.61 1,540.80 155
6/20/2019 3 PM EDT 1,686.66 1,540.79 155
6/20/2019 4 PM EDT 1,686.64 1,540.77 181
6/20/2019 5 PM EDT 1,686.63 1,543.66 1,765
6/20/2019 6 PM EDT 1,686.60 1,543.74 1,756
6/20/2019 7 PM EDT 1,686.57 1,543.74 1,751

Elevations are in feet above sea level. Discharges are in cubic feet per second and are reported at the end of the hour.